This is the latest recevied weather packets stored in our database for station/object G4GJR. If no packets are shown the sender has not sent any weather packets the latest 10 day(s).
| Time | Temp. | Humidity | Pressure | Rain* | Wind** | Luminosity | Snow |
|---|---|---|---|---|---|---|---|
| 1777955404 | 9.44° C | 91% | 1014.4 hPa | 0 mm | - | - | - |
| 1777945504 | 9.44° C | 91% | 1014.9 hPa | 0 mm | - | - | - |
| 1777932903 | 11.11° C | 85% | 1015.9 hPa | 0 mm | - | - | - |
| 1777919405 | 12.78° C | 81% | 1015.4 hPa | 0 mm | - | - | - |
| 1777918504 | 13.33° C | 81% | 1015.2 hPa | 0 mm | - | - | - |
| 1777916704 | 13.89° C | 79% | 1015.1 hPa | 0 mm | - | - | - |
| 1777915804 | 13.89° C | 79% | 1015.2 hPa | 0 mm | - | - | - |
| 1777891504 | 12.22° C | 86% | 1015.9 hPa | 0 mm | - | - | - |
| 1777889704 | 11.67° C | 88% | 1015.7 hPa | 0 mm | - | - | - |
| 1777887904 | 11.11° C | 89% | 1015.8 hPa | 0 mm | - | - | - |
| 1777884305 | 11.11° C | 90% | 1015.5 hPa | 0 mm | - | - | - |
| 1777880704 | 10.56° C | 90% | 1014.9 hPa | 0 mm | - | - | - |
| 1777876204 | 10° C | 92% | 1014.4 hPa | 0 mm | - | - | - |
| 1777874404 | 10° C | 92% | 1014.1 hPa | 0 mm | - | - | - |
| 1777873504 | 10° C | 92% | 1013.9 hPa | 0 mm | - | - | - |
| 1777866304 | 10.56° C | 92% | 1013.1 hPa | 0 mm | - | - | - |
| 1777865404 | 10.56° C | 92% | 1013.1 hPa | 0 mm | - | - | - |
| 1777858204 | 11.67° C | 92% | 1012.7 hPa | 0 mm | - | - | - |
| 1777854604 | 11.67° C | 91% | 1012.6 hPa | 2.29 mm | - | - | - |
| 1777848304 | 11.67° C | 89% | 1012 hPa | 0 mm | - | - | - |
| 1777845604 | 12.22° C | 87% | 1011.7 hPa | 0 mm | - | - | - |
| 1777843806 | 13.33° C | 86% | 1011.5 hPa | 0 mm | - | - | - |
| 1777841104 | 13.89° C | 81% | 1011.1 hPa | 0 mm | - | - | - |
| 1777840205 | 13.89° C | 80% | 1010.8 hPa | 0 mm | - | - | - |
| 1777834804 | 16.67° C | 70% | 1009.9 hPa | 0 mm | - | - | - |
* Rain latest hour (hover to see other rain measurements)
** Current wind speed in m/s (hover to see current wind gust speed)